Shevlin, Minnesota
Current Conditions -  °F | °C
As of 2:51 PM on Friday 19 Dec 2014 (Local Time) from KBJI Reporting Station
Haze Haze  
Wind Chill: 12°   Ceiling: 300
Heat Index: 22°   Visibility: 1mi
Dew Point: 22°   Wind: 10mph
Humidity: 97%   Direction: 130°SE
Pressure: 30.05"   Gusts: NA
Location:  47.53°N, 95.26°W
Report Text: KBJI 192051Z AUTO 13009KT 1SM BR OVC003 M05/M06 A3005 RMK AO2 T10531057
Loading
Personal Weather Stations






























Interactive Weather Map New forecast layout! Learn more

10-Day Weather Forecast

Advertisements
Track Severe Weather on mobile